sensor_id;sensor_type;location;lat;lon;timestamp;P1;durP1;ratioP1;P2;durP2;ratioP2
4704;SDS011;2366;51.332;6.610;2023-04-24T00:00:30;1.87;;;0.87;;
4704;SDS011;2366;51.332;6.610;2023-04-24T00:02:56;2.83;;;0.90;;
4704;SDS011;2366;51.332;6.610;2023-04-24T00:05:22;1.30;;;1.20;;
4704;SDS011;2366;51.332;6.610;2023-04-24T00:07:48;2.47;;;1.37;;
4704;SDS011;2366;51.332;6.610;2023-04-24T00:10:13;1.13;;;1.10;;
4704;SDS011;2366;51.332;6.610;2023-04-24T00:12:39;1.20;;;1.10;;
4704;SDS011;2366;51.332;6.610;2023-04-24T00:15:04;1.60;;;1.10;;
4704;SDS011;2366;51.332;6.610;2023-04-24T00:17:30;2.55;;;1.00;;
4704;SDS011;2366;51.332;6.610;2023-04-24T00:19:56;1.47;;;1.37;;
4704;SDS011;2366;51.332;6.610;2023-04-24T00:22:26;2.15;;;1.40;;
4704;SDS011;2366;51.332;6.610;2023-04-24T00:24:53;0.82;;;0.80;;
4704;SDS011;2366;51.332;6.610;2023-04-24T00:27:19;2.30;;;1.63;;
4704;SDS011;2366;51.332;6.610;2023-04-24T00:29:44;2.40;;;2.20;;
4704;SDS011;2366;51.332;6.610;2023-04-24T00:32:09;2.63;;;2.10;;
4704;SDS011;2366;51.332;6.610;2023-04-24T00:34:35;4.30;;;3.00;;
4704;SDS011;2366;51.332;6.610;2023-04-24T00:37:00;2.50;;;2.10;;
4704;SDS011;2366;51.332;6.610;2023-04-24T00:39:26;6.83;;;2.37;;
4704;SDS011;2366;51.332;6.610;2023-04-24T00:41:51;8.90;;;3.37;;
4704;SDS011;2366;51.332;6.610;2023-04-24T00:44:18;5.90;;;3.33;;
4704;SDS011;2366;51.332;6.610;2023-04-24T00:46:43;5.93;;;3.67;;
4704;SDS011;2366;51.332;6.610;2023-04-24T00:49:09;7.00;;;3.20;;
4704;SDS011;2366;51.332;6.610;2023-04-24T00:51:35;5.25;;;3.38;;
4704;SDS011;2366;51.332;6.610;2023-04-24T00:54:01;8.93;;;4.68;;
4704;SDS011;2366;51.332;6.610;2023-04-24T00:56:27;4.00;;;3.70;;
4704;SDS011;2366;51.332;6.610;2023-04-24T00:58:53;6.57;;;3.75;;
4704;SDS011;2366;51.332;6.610;2023-04-24T01:01:19;5.17;;;3.20;;
4704;SDS011;2366;51.332;6.610;2023-04-24T01:03:46;4.63;;;3.17;;
4704;SDS011;2366;51.332;6.610;2023-04-24T01:06:12;7.25;;;4.13;;
4704;SDS011;2366;51.332;6.610;2023-04-24T01:08:38;8.73;;;4.65;;
4704;SDS011;2366;51.332;6.610;2023-04-24T01:11:04;11.47;;;4.53;;
4704;SDS011;2366;51.332;6.610;2023-04-24T01:13:30;7.00;;;4.50;;
4704;SDS011;2366;51.332;6.610;2023-04-24T01:15:56;4.85;;;4.32;;
4704;SDS011;2366;51.332;6.610;2023-04-24T01:18:22;7.40;;;5.13;;
4704;SDS011;2366;51.332;6.610;2023-04-24T01:20:47;4.70;;;4.07;;
4704;SDS011;2366;51.332;6.610;2023-04-24T01:23:17;4.53;;;4.13;;
4704;SDS011;2366;51.332;6.610;2023-04-24T01:25:43;6.43;;;5.00;;
4704;SDS011;2366;51.332;6.610;2023-04-24T01:28:08;10.00;;;3.73;;
4704;SDS011;2366;51.332;6.610;2023-04-24T01:30:34;4.37;;;3.97;;
4704;SDS011;2366;51.332;6.610;2023-04-24T01:32:59;10.60;;;3.30;;
4704;SDS011;2366;51.332;6.610;2023-04-24T01:35:25;4.20;;;3.80;;
4704;SDS011;2366;51.332;6.610;2023-04-24T01:37:51;6.50;;;4.28;;
4704;SDS011;2366;51.332;6.610;2023-04-24T01:40:16;6.87;;;4.40;;
4704;SDS011;2366;51.332;6.610;2023-04-24T01:42:42;8.10;;;5.27;;
4704;SDS011;2366;51.332;6.610;2023-04-24T01:45:08;5.20;;;3.73;;
4704;SDS011;2366;51.332;6.610;2023-04-24T01:47:35;5.82;;;4.60;;
4704;SDS011;2366;51.332;6.610;2023-04-24T01:50:01;11.23;;;5.70;;
4704;SDS011;2366;51.332;6.610;2023-04-24T01:52:27;6.10;;;5.13;;
4704;SDS011;2366;51.332;6.610;2023-04-24T01:54:53;9.45;;;5.45;;
4704;SDS011;2366;51.332;6.610;2023-04-24T01:57:20;8.98;;;6.13;;
4704;SDS011;2366;51.332;6.610;2023-04-24T01:59:46;8.33;;;5.53;;
4704;SDS011;2366;51.332;6.610;2023-04-24T02:02:11;9.57;;;6.33;;
4704;SDS011;2366;51.332;6.610;2023-04-24T02:04:36;8.43;;;5.70;;
4704;SDS011;2366;51.332;6.610;2023-04-24T02:07:02;13.40;;;7.53;;
4704;SDS011;2366;51.332;6.610;2023-04-24T02:09:27;12.80;;;7.60;;
4704;SDS011;2366;51.332;6.610;2023-04-24T02:11:53;9.47;;;7.17;;
4704;SDS011;2366;51.332;6.610;2023-04-24T02:14:18;18.40;;;7.90;;
4704;SDS011;2366;51.332;6.610;2023-04-24T02:16:43;10.80;;;7.23;;
4704;SDS011;2366;51.332;6.610;2023-04-24T02:19:09;12.73;;;7.97;;
4704;SDS011;2366;51.332;6.610;2023-04-24T02:21:35;11.33;;;6.60;;
4704;SDS011;2366;51.332;6.610;2023-04-24T02:24:00;16.63;;;7.07;;
4704;SDS011;2366;51.332;6.610;2023-04-24T02:26:26;9.73;;;6.37;;
4704;SDS011;2366;51.332;6.610;2023-04-24T02:28:51;12.57;;;6.80;;
4704;SDS011;2366;51.332;6.610;2023-04-24T02:31:16;13.43;;;7.13;;
4704;SDS011;2366;51.332;6.610;2023-04-24T02:33:42;14.60;;;7.43;;
4704;SDS011;2366;51.332;6.610;2023-04-24T02:36:07;9.93;;;7.13;;
4704;SDS011;2366;51.332;6.610;2023-04-24T02:38:32;11.30;;;6.03;;
4704;SDS011;2366;51.332;6.610;2023-04-24T02:40:58;12.17;;;8.47;;
4704;SDS011;2366;51.332;6.610;2023-04-24T02:43:23;16.83;;;7.87;;
4704;SDS011;2366;51.332;6.610;2023-04-24T02:45:48;11.47;;;8.47;;
4704;SDS011;2366;51.332;6.610;2023-04-24T02:48:14;11.43;;;7.70;;
4704;SDS011;2366;51.332;6.610;2023-04-24T02:50:40;15.20;;;9.60;;
4704;SDS011;2366;51.332;6.610;2023-04-24T02:53:05;12.30;;;8.70;;
4704;SDS011;2366;51.332;6.610;2023-04-24T02:55:30;24.67;;;8.37;;
4704;SDS011;2366;51.332;6.610;2023-04-24T02:57:56;17.67;;;8.97;;
4704;SDS011;2366;51.332;6.610;2023-04-24T03:00:21;16.30;;;8.73;;
4704;SDS011;2366;51.332;6.610;2023-04-24T03:02:47;16.90;;;9.60;;
4704;SDS011;2366;51.332;6.610;2023-04-24T03:05:12;12.27;;;8.50;;
4704;SDS011;2366;51.332;6.610;2023-04-24T03:07:37;16.30;;;8.97;;
4704;SDS011;2366;51.332;6.610;2023-04-24T03:10:03;10.33;;;8.27;;
4704;SDS011;2366;51.332;6.610;2023-04-24T03:12:30;18.27;;;9.65;;
4704;SDS011;2366;51.332;6.610;2023-04-24T03:14:56;16.20;;;8.80;;
4704;SDS011;2366;51.332;6.610;2023-04-24T03:17:21;11.37;;;7.60;;
4704;SDS011;2366;51.332;6.610;2023-04-24T03:19:46;13.17;;;8.27;;
4704;SDS011;2366;51.332;6.610;2023-04-24T03:22:12;15.13;;;8.83;;
4704;SDS011;2366;51.332;6.610;2023-04-24T03:24:37;12.20;;;9.73;;
4704;SDS011;2366;51.332;6.610;2023-04-24T03:27:02;19.60;;;8.83;;
4704;SDS011;2366;51.332;6.610;2023-04-24T03:29:28;10.17;;;7.67;;
4704;SDS011;2366;51.332;6.610;2023-04-24T03:31:53;16.40;;;8.17;;
4704;SDS011;2366;51.332;6.610;2023-04-24T03:34:19;19.20;;;9.73;;
4704;SDS011;2366;51.332;6.610;2023-04-24T03:36:44;20.10;;;7.87;;
4704;SDS011;2366;51.332;6.610;2023-04-24T03:39:12;22.42;;;8.73;;
4704;SDS011;2366;51.332;6.610;2023-04-24T03:41:37;11.53;;;7.00;;
4704;SDS011;2366;51.332;6.610;2023-04-24T03:44:03;11.67;;;6.93;;
4704;SDS011;2366;51.332;6.610;2023-04-24T03:46:28;13.63;;;8.40;;
4704;SDS011;2366;51.332;6.610;2023-04-24T03:48:53;15.03;;;8.13;;
4704;SDS011;2366;51.332;6.610;2023-04-24T03:51:19;11.77;;;7.50;;
4704;SDS011;2366;51.332;6.610;2023-04-24T03:53:44;14.10;;;8.50;;
4704;SDS011;2366;51.332;6.610;2023-04-24T03:56:09;18.03;;;8.97;;
4704;SDS011;2366;51.332;6.610;2023-04-24T03:58:35;9.60;;;7.53;;
4704;SDS011;2366;51.332;6.610;2023-04-24T04:01:00;13.10;;;8.53;;
4704;SDS011;2366;51.332;6.610;2023-04-24T04:03:26;11.90;;;8.00;;
4704;SDS011;2366;51.332;6.610;2023-04-24T04:05:51;10.80;;;7.60;;
4704;SDS011;2366;51.332;6.610;2023-04-24T04:08:16;18.23;;;7.80;;
4704;SDS011;2366;51.332;6.610;2023-04-24T04:10:42;21.57;;;8.10;;
4704;SDS011;2366;51.332;6.610;2023-04-24T04:13:07;10.30;;;8.33;;
4704;SDS011;2366;51.332;6.610;2023-04-24T04:15:33;21.03;;;8.07;;
4704;SDS011;2366;51.332;6.610;2023-04-24T04:17:58;13.43;;;8.93;;
4704;SDS011;2366;51.332;6.610;2023-04-24T04:20:23;12.87;;;9.03;;
4704;SDS011;2366;51.332;6.610;2023-04-24T04:22:49;12.00;;;9.03;;
4704;SDS011;2366;51.332;6.610;2023-04-24T04:25:14;11.63;;;8.43;;
4704;SDS011;2366;51.332;6.610;2023-04-24T04:27:40;14.67;;;9.50;;
4704;SDS011;2366;51.332;6.610;2023-04-24T04:30:07;14.02;;;7.68;;
4704;SDS011;2366;51.332;6.610;2023-04-24T04:32:36;10.68;;;6.80;;
4704;SDS011;2366;51.332;6.610;2023-04-24T04:35:02;9.40;;;6.82;;
4704;SDS011;2366;51.332;6.610;2023-04-24T04:37:29;12.05;;;7.07;;
4704;SDS011;2366;51.332;6.610;2023-04-24T04:39:54;11.18;;;7.40;;
4704;SDS011;2366;51.332;6.610;2023-04-24T04:42:20;10.93;;;6.97;;
4704;SDS011;2366;51.332;6.610;2023-04-24T04:44:46;10.77;;;6.73;;
4704;SDS011;2366;51.332;6.610;2023-04-24T04:47:11;12.90;;;6.60;;
4704;SDS011;2366;51.332;6.610;2023-04-24T04:49:37;8.80;;;6.30;;
4704;SDS011;2366;51.332;6.610;2023-04-24T04:52:03;8.60;;;6.10;;
4704;SDS011;2366;51.332;6.610;2023-04-24T04:54:29;8.83;;;6.50;;
4704;SDS011;2366;51.332;6.610;2023-04-24T04:56:54;12.00;;;6.50;;
4704;SDS011;2366;51.332;6.610;2023-04-24T04:59:20;11.68;;;7.38;;
4704;SDS011;2366;51.332;6.610;2023-04-24T05:01:46;10.80;;;6.80;;
4704;SDS011;2366;51.332;6.610;2023-04-24T05:04:11;11.47;;;7.30;;
4704;SDS011;2366;51.332;6.610;2023-04-24T05:06:36;13.40;;;7.57;;
4704;SDS011;2366;51.332;6.610;2023-04-24T05:09:02;11.07;;;6.80;;
4704;SDS011;2366;51.332;6.610;2023-04-24T05:11:28;10.82;;;7.47;;
4704;SDS011;2366;51.332;6.610;2023-04-24T05:13:54;12.85;;;8.25;;
4704;SDS011;2366;51.332;6.610;2023-04-24T05:16:20;22.50;;;7.83;;
4704;SDS011;2366;51.332;6.610;2023-04-24T05:18:45;10.60;;;7.90;;
4704;SDS011;2366;51.332;6.610;2023-04-24T05:21:11;9.93;;;7.27;;
4704;SDS011;2366;51.332;6.610;2023-04-24T05:23:36;7.43;;;6.60;;
4704;SDS011;2366;51.332;6.610;2023-04-24T05:26:02;15.00;;;7.50;;
4704;SDS011;2366;51.332;6.610;2023-04-24T05:28:27;13.00;;;8.10;;
4704;SDS011;2366;51.332;6.610;2023-04-24T05:30:55;15.13;;;7.55;;
4704;SDS011;2366;51.332;6.610;2023-04-24T05:33:21;9.03;;;7.07;;
4704;SDS011;2366;51.332;6.610;2023-04-24T05:35:47;13.33;;;7.70;;
4704;SDS011;2366;51.332;6.610;2023-04-24T05:38:13;9.73;;;7.20;;
4704;SDS011;2366;51.332;6.610;2023-04-24T05:40:39;8.52;;;6.45;;
4704;SDS011;2366;51.332;6.610;2023-04-24T05:43:05;11.27;;;6.13;;
4704;SDS011;2366;51.332;6.610;2023-04-24T05:45:30;11.23;;;6.80;;
4704;SDS011;2366;51.332;6.610;2023-04-24T05:47:56;7.97;;;6.93;;
4704;SDS011;2366;51.332;6.610;2023-04-24T05:50:22;9.13;;;6.53;;
4704;SDS011;2366;51.332;6.610;2023-04-24T05:52:47;9.83;;;6.43;;
4704;SDS011;2366;51.332;6.610;2023-04-24T05:55:12;11.43;;;7.03;;
4704;SDS011;2366;51.332;6.610;2023-04-24T05:57:38;12.47;;;7.37;;
4704;SDS011;2366;51.332;6.610;2023-04-24T06:00:04;14.23;;;7.20;;
4704;SDS011;2366;51.332;6.610;2023-04-24T06:02:30;11.85;;;6.00;;
4704;SDS011;2366;51.332;6.610;2023-04-24T06:04:58;14.90;;;6.47;;
4704;SDS011;2366;51.332;6.610;2023-04-24T06:07:24;9.88;;;6.45;;
4704;SDS011;2366;51.332;6.610;2023-04-24T06:09:51;7.85;;;5.25;;
4704;SDS011;2366;51.332;6.610;2023-04-24T06:12:17;8.00;;;6.00;;
4704;SDS011;2366;51.332;6.610;2023-04-24T06:14:42;10.50;;;5.93;;
4704;SDS011;2366;51.332;6.610;2023-04-24T06:17:08;7.50;;;5.73;;
4704;SDS011;2366;51.332;6.610;2023-04-24T06:19:33;9.23;;;5.00;;
4704;SDS011;2366;51.332;6.610;2023-04-24T06:21:59;8.83;;;5.70;;
4704;SDS011;2366;51.332;6.610;2023-04-24T06:24:29;6.75;;;5.05;;
4704;SDS011;2366;51.332;6.610;2023-04-24T06:26:54;6.32;;;4.55;;
4704;SDS011;2366;51.332;6.610;2023-04-24T06:29:21;7.78;;;5.28;;
4704;SDS011;2366;51.332;6.610;2023-04-24T06:31:47;7.43;;;5.00;;
4704;SDS011;2366;51.332;6.610;2023-04-24T06:34:12;6.50;;;4.60;;
4704;SDS011;2366;51.332;6.610;2023-04-24T06:36:37;7.10;;;3.97;;
4704;SDS011;2366;51.332;6.610;2023-04-24T06:39:03;5.23;;;4.70;;
4704;SDS011;2366;51.332;6.610;2023-04-24T06:41:28;6.80;;;4.27;;
4704;SDS011;2366;51.332;6.610;2023-04-24T06:43:54;5.63;;;3.97;;
4704;SDS011;2366;51.332;6.610;2023-04-24T06:46:20;8.67;;;4.33;;
4704;SDS011;2366;51.332;6.610;2023-04-24T06:48:48;5.80;;;4.60;;
4704;SDS011;2366;51.332;6.610;2023-04-24T06:51:14;7.53;;;3.83;;
4704;SDS011;2366;51.332;6.610;2023-04-24T06:53:39;8.20;;;4.17;;
4704;SDS011;2366;51.332;6.610;2023-04-24T06:56:04;7.40;;;3.57;;
4704;SDS011;2366;51.332;6.610;2023-04-24T06:58:30;3.50;;;3.20;;
4704;SDS011;2366;51.332;6.610;2023-04-24T07:00:55;4.60;;;3.20;;
4704;SDS011;2366;51.332;6.610;2023-04-24T07:03:21;4.97;;;3.20;;
4704;SDS011;2366;51.332;6.610;2023-04-24T07:05:46;2.60;;;2.40;;
4704;SDS011;2366;51.332;6.610;2023-04-24T07:08:14;2.67;;;1.90;;
4704;SDS011;2366;51.332;6.610;2023-04-24T07:10:42;1.63;;;1.52;;
4704;SDS011;2366;51.332;6.610;2023-04-24T07:13:07;2.50;;;1.50;;
4704;SDS011;2366;51.332;6.610;2023-04-24T07:15:33;1.80;;;1.70;;
4704;SDS011;2366;51.332;6.610;2023-04-24T07:17:59;2.97;;;1.30;;
4704;SDS011;2366;51.332;6.610;2023-04-24T07:20:24;1.60;;;1.50;;
4704;SDS011;2366;51.332;6.610;2023-04-24T07:22:51;1.05;;;1.05;;
4704;SDS011;2366;51.332;6.610;2023-04-24T07:25:16;1.00;;;0.90;;
4704;SDS011;2366;51.332;6.610;2023-04-24T07:27:42;1.10;;;1.00;;
4704;SDS011;2366;51.332;6.610;2023-04-24T07:30:08;0.70;;;0.70;;
4704;SDS011;2366;51.332;6.610;2023-04-24T07:32:33;3.97;;;0.90;;
4704;SDS011;2366;51.332;6.610;2023-04-24T07:35:00;1.40;;;0.80;;
4704;SDS011;2366;51.332;6.610;2023-04-24T07:37:25;0.63;;;0.63;;
4704;SDS011;2366;51.332;6.610;2023-04-24T07:39:51;1.53;;;1.07;;
4704;SDS011;2366;51.332;6.610;2023-04-24T07:42:16;0.60;;;0.60;;
4704;SDS011;2366;51.332;6.610;2023-04-24T07:44:42;0.80;;;0.80;;
4704;SDS011;2366;51.332;6.610;2023-04-24T07:47:07;0.90;;;0.70;;
4704;SDS011;2366;51.332;6.610;2023-04-24T07:49:33;1.30;;;1.00;;
4704;SDS011;2366;51.332;6.610;2023-04-24T07:51:59;1.55;;;1.33;;
4704;SDS011;2366;51.332;6.610;2023-04-24T07:54:27;0.93;;;0.93;;
4704;SDS011;2366;51.332;6.610;2023-04-24T07:56:53;2.85;;;1.50;;
4704;SDS011;2366;51.332;6.610;2023-04-24T07:59:19;1.73;;;1.63;;
4704;SDS011;2366;51.332;6.610;2023-04-24T08:01:44;2.97;;;1.17;;
4704;SDS011;2366;51.332;6.610;2023-04-24T08:04:09;1.77;;;1.30;;
4704;SDS011;2366;51.332;6.610;2023-04-24T08:06:35;1.50;;;1.40;;
4704;SDS011;2366;51.332;6.610;2023-04-24T08:09:00;2.00;;;1.20;;
4704;SDS011;2366;51.332;6.610;2023-04-24T08:11:25;2.07;;;1.60;;
4704;SDS011;2366;51.332;6.610;2023-04-24T08:13:51;1.98;;;1.10;;
4704;SDS011;2366;51.332;6.610;2023-04-24T08:16:17;3.13;;;1.23;;
4704;SDS011;2366;51.332;6.610;2023-04-24T08:18:42;2.30;;;1.10;;
4704;SDS011;2366;51.332;6.610;2023-04-24T08:21:08;1.70;;;1.20;;
4704;SDS011;2366;51.332;6.610;2023-04-24T08:23:33;1.07;;;0.93;;
4704;SDS011;2366;51.332;6.610;2023-04-24T08:25:58;2.40;;;0.87;;
4704;SDS011;2366;51.332;6.610;2023-04-24T08:28:24;1.20;;;0.90;;
4704;SDS011;2366;51.332;6.610;2023-04-24T08:30:50;1.80;;;0.80;;
4704;SDS011;2366;51.332;6.610;2023-04-24T08:33:23;0.82;;;0.82;;
4704;SDS011;2366;51.332;6.610;2023-04-24T08:35:49;1.10;;;0.80;;
4704;SDS011;2366;51.332;6.610;2023-04-24T08:38:15;1.20;;;1.10;;
4704;SDS011;2366;51.332;6.610;2023-04-24T08:40:40;1.77;;;1.35;;
4704;SDS011;2366;51.332;6.610;2023-04-24T08:43:06;1.97;;;1.60;;
4704;SDS011;2366;51.332;6.610;2023-04-24T08:45:32;3.45;;;1.20;;
4704;SDS011;2366;51.332;6.610;2023-04-24T08:47:58;2.50;;;1.33;;
4704;SDS011;2366;51.332;6.610;2023-04-24T08:50:23;2.43;;;2.23;;
4704;SDS011;2366;51.332;6.610;2023-04-24T08:52:49;4.57;;;2.95;;
4704;SDS011;2366;51.332;6.610;2023-04-24T08:55:16;3.40;;;3.10;;
4704;SDS011;2366;51.332;6.610;2023-04-24T08:57:45;5.00;;;3.17;;
4704;SDS011;2366;51.332;6.610;2023-04-24T09:00:16;3.90;;;3.42;;
4704;SDS011;2366;51.332;6.610;2023-04-24T09:02:42;3.92;;;3.08;;
4704;SDS011;2366;51.332;6.610;2023-04-24T09:05:08;3.67;;;3.13;;
4704;SDS011;2366;51.332;6.610;2023-04-24T09:07:35;3.67;;;3.38;;
4704;SDS011;2366;51.332;6.610;2023-04-24T09:10:04;5.53;;;3.92;;
4704;SDS011;2366;51.332;6.610;2023-04-24T09:12:31;8.60;;;4.28;;
4704;SDS011;2366;51.332;6.610;2023-04-24T09:14:57;4.95;;;3.35;;
4704;SDS011;2366;51.332;6.610;2023-04-24T09:17:24;6.60;;;4.30;;
4704;SDS011;2366;51.332;6.610;2023-04-24T09:19:51;7.78;;;3.92;;
4704;SDS011;2366;51.332;6.610;2023-04-24T09:22:17;8.47;;;4.50;;
4704;SDS011;2366;51.332;6.610;2023-04-24T09:24:42;7.33;;;3.47;;
4704;SDS011;2366;51.332;6.610;2023-04-24T09:27:11;4.25;;;2.92;;
4704;SDS011;2366;51.332;6.610;2023-04-24T09:29:53;4.15;;;3.75;;
4704;SDS011;2366;51.332;6.610;2023-04-24T09:32:20;11.90;;;4.55;;
4704;SDS011;2366;51.332;6.610;2023-04-24T09:34:47;10.60;;;4.50;;
4704;SDS011;2366;51.332;6.610;2023-04-24T09:37:58;9.25;;;4.15;;
4704;SDS011;2366;51.332;6.610;2023-04-24T09:40:13;9.93;;;5.03;;
4704;SDS011;2366;51.332;6.610;2023-04-24T09:42:59;7.85;;;4.85;;
4704;SDS011;2366;51.332;6.610;2023-04-24T09:45:27;15.20;;;4.50;;
4704;SDS011;2366;51.332;6.610;2023-04-24T09:48:00;7.57;;;3.97;;
4704;SDS011;2366;51.332;6.610;2023-04-24T09:50:25;6.73;;;4.10;;
4704;SDS011;2366;51.332;6.610;2023-04-24T09:53:24;7.97;;;4.30;;
4704;SDS011;2366;51.332;6.610;2023-04-24T09:55:48;9.85;;;3.90;;
4704;SDS011;2366;51.332;6.610;2023-04-24T09:58:15;5.68;;;3.70;;
4704;SDS011;2366;51.332;6.610;2023-04-24T10:00:40;9.97;;;3.60;;
4704;SDS011;2366;51.332;6.610;2023-04-24T10:03:06;2.80;;;2.60;;
4704;SDS011;2366;51.332;6.610;2023-04-24T10:05:32;3.80;;;2.87;;
4704;SDS011;2366;51.332;6.610;2023-04-24T10:08:00;3.17;;;2.88;;
4704;SDS011;2366;51.332;6.610;2023-04-24T10:10:37;8.57;;;3.30;;
4704;SDS011;2366;51.332;6.610;2023-04-24T10:13:04;3.30;;;2.60;;
4704;SDS011;2366;51.332;6.610;2023-04-24T10:15:30;5.53;;;3.27;;
4704;SDS011;2366;51.332;6.610;2023-04-24T10:17:55;9.77;;;4.10;;
4704;SDS011;2366;51.332;6.610;2023-04-24T10:20:23;11.70;;;3.47;;
4704;SDS011;2366;51.332;6.610;2023-04-24T10:22:51;9.95;;;3.70;;
4704;SDS011;2366;51.332;6.610;2023-04-24T10:25:22;10.70;;;3.45;;
4704;SDS011;2366;51.332;6.610;2023-04-24T10:27:49;5.03;;;2.67;;
4704;SDS011;2366;51.332;6.610;2023-04-24T10:30:16;6.25;;;3.13;;
4704;SDS011;2366;51.332;6.610;2023-04-24T10:32:43;14.23;;;3.47;;
4704;SDS011;2366;51.332;6.610;2023-04-24T10:35:09;7.73;;;2.80;;
4704;SDS011;2366;51.332;6.610;2023-04-24T10:37:37;6.40;;;2.88;;
4704;SDS011;2366;51.332;6.610;2023-04-24T10:40:09;16.17;;;3.75;;
4704;SDS011;2366;51.332;6.610;2023-04-24T10:42:35;25.23;;;9.70;;
4704;SDS011;2366;51.332;6.610;2023-04-24T10:45:15;17.65;;;7.10;;
4704;SDS011;2366;51.332;6.610;2023-04-24T10:47:42;16.40;;;6.00;;
4704;SDS011;2366;51.332;6.610;2023-04-24T10:50:12;10.90;;;5.07;;
4704;SDS011;2366;51.332;6.610;2023-04-24T10:52:44;10.90;;;4.55;;
4704;SDS011;2366;51.332;6.610;2023-04-24T10:55:10;7.72;;;3.65;;
4704;SDS011;2366;51.332;6.610;2023-04-24T10:57:38;8.80;;;4.40;;
4704;SDS011;2366;51.332;6.610;2023-04-24T11:00:19;6.10;;;4.23;;
4704;SDS011;2366;51.332;6.610;2023-04-24T11:02:47;12.88;;;4.65;;
4704;SDS011;2366;51.332;6.610;2023-04-24T11:05:18;5.07;;;3.85;;
4704;SDS011;2366;51.332;6.610;2023-04-24T11:10:47;12.13;;;3.88;;
4704;SDS011;2366;51.332;6.610;2023-04-24T11:13:22;9.65;;;3.35;;
4704;SDS011;2366;51.332;6.610;2023-04-24T11:16:11;11.95;;;4.00;;
4704;SDS011;2366;51.332;6.610;2023-04-24T11:18:38;10.32;;;2.75;;
4704;SDS011;2366;51.332;6.610;2023-04-24T11:21:17;6.85;;;2.75;;
4704;SDS011;2366;51.332;6.610;2023-04-24T11:23:43;9.48;;;2.72;;
4704;SDS011;2366;51.332;6.610;2023-04-24T11:26:10;4.60;;;2.67;;
4704;SDS011;2366;51.332;6.610;2023-04-24T11:28:49;6.90;;;2.88;;
4704;SDS011;2366;51.332;6.610;2023-04-24T11:34:10;10.93;;;3.22;;
4704;SDS011;2366;51.332;6.610;2023-04-24T11:36:37;11.50;;;2.42;;
4704;SDS011;2366;51.332;6.610;2023-04-24T11:39:03;9.07;;;3.13;;
4704;SDS011;2366;51.332;6.610;2023-04-24T11:41:29;8.27;;;2.33;;
4704;SDS011;2366;51.332;6.610;2023-04-24T11:43:55;7.07;;;2.20;;
4704;SDS011;2366;51.332;6.610;2023-04-24T11:46:22;6.28;;;2.22;;
4704;SDS011;2366;51.332;6.610;2023-04-24T11:48:47;16.33;;;2.73;;
4704;SDS011;2366;51.332;6.610;2023-04-24T11:51:13;5.07;;;2.43;;
4704;SDS011;2366;51.332;6.610;2023-04-24T11:53:39;7.18;;;3.17;;
4704;SDS011;2366;51.332;6.610;2023-04-24T11:56:04;6.20;;;2.17;;
4704;SDS011;2366;51.332;6.610;2023-04-24T11:58:37;5.30;;;2.60;;
4704;SDS011;2366;51.332;6.610;2023-04-24T12:01:03;10.80;;;3.17;;
4704;SDS011;2366;51.332;6.610;2023-04-24T12:03:30;5.15;;;2.00;;
4704;SDS011;2366;51.332;6.610;2023-04-24T12:06:08;10.48;;;2.55;;
4704;SDS011;2366;51.332;6.610;2023-04-24T12:08:35;3.72;;;2.28;;
4704;SDS011;2366;51.332;6.610;2023-04-24T12:11:01;2.20;;;1.60;;
4704;SDS011;2366;51.332;6.610;2023-04-24T12:13:32;6.15;;;2.55;;
4704;SDS011;2366;51.332;6.610;2023-04-24T12:15:58;3.45;;;1.75;;
4704;SDS011;2366;51.332;6.610;2023-04-24T12:18:23;7.13;;;1.40;;
4704;SDS011;2366;51.332;6.610;2023-04-24T12:20:49;7.17;;;1.90;;
4704;SDS011;2366;51.332;6.610;2023-04-24T12:23:15;4.30;;;1.73;;
4704;SDS011;2366;51.332;6.610;2023-04-24T12:25:41;3.10;;;1.80;;
4704;SDS011;2366;51.332;6.610;2023-04-24T12:30:44;4.27;;;1.57;;
4704;SDS011;2366;51.332;6.610;2023-04-24T12:33:16;3.85;;;1.70;;
4704;SDS011;2366;51.332;6.610;2023-04-24T12:35:42;5.13;;;1.48;;
4704;SDS011;2366;51.332;6.610;2023-04-24T12:38:08;3.20;;;1.90;;
4704;SDS011;2366;51.332;6.610;2023-04-24T12:40:35;4.20;;;1.80;;
4704;SDS011;2366;51.332;6.610;2023-04-24T12:43:01;4.53;;;1.80;;
4704;SDS011;2366;51.332;6.610;2023-04-24T12:45:38;1.05;;;0.95;;
4704;SDS011;2366;51.332;6.610;2023-04-24T12:48:03;4.47;;;1.10;;
4704;SDS011;2366;51.332;6.610;2023-04-24T12:50:29;5.33;;;1.73;;
4704;SDS011;2366;51.332;6.610;2023-04-24T12:52:54;3.00;;;1.20;;
4704;SDS011;2366;51.332;6.610;2023-04-24T12:55:19;2.60;;;1.60;;
4704;SDS011;2366;51.332;6.610;2023-04-24T12:57:45;3.13;;;1.00;;
4704;SDS011;2366;51.332;6.610;2023-04-24T13:00:10;1.43;;;1.33;;
4704;SDS011;2366;51.332;6.610;2023-04-24T13:02:36;4.27;;;1.77;;
4704;SDS011;2366;51.332;6.610;2023-04-24T13:05:03;3.10;;;1.30;;
4704;SDS011;2366;51.332;6.610;2023-04-24T13:07:28;3.27;;;1.20;;
4704;SDS011;2366;51.332;6.610;2023-04-24T13:09:54;4.30;;;1.20;;
4704;SDS011;2366;51.332;6.610;2023-04-24T13:12:21;1.77;;;1.30;;
4704;SDS011;2366;51.332;6.610;2023-04-24T13:14:49;4.25;;;0.90;;
4704;SDS011;2366;51.332;6.610;2023-04-24T13:17:14;1.27;;;1.17;;
4704;SDS011;2366;51.332;6.610;2023-04-24T13:19:40;1.03;;;0.87;;
4704;SDS011;2366;51.332;6.610;2023-04-24T13:22:08;3.45;;;0.90;;
4704;SDS011;2366;51.332;6.610;2023-04-24T13:24:35;1.77;;;0.90;;
4704;SDS011;2366;51.332;6.610;2023-04-24T13:27:02;2.55;;;1.00;;
4704;SDS011;2366;51.332;6.610;2023-04-24T13:29:27;1.60;;;0.77;;
4704;SDS011;2366;51.332;6.610;2023-04-24T13:31:53;2.83;;;0.80;;
4704;SDS011;2366;51.332;6.610;2023-04-24T13:34:20;1.05;;;0.82;;
4704;SDS011;2366;51.332;6.610;2023-04-24T13:36:46;1.38;;;1.10;;
4704;SDS011;2366;51.332;6.610;2023-04-24T13:39:11;2.40;;;1.43;;
4704;SDS011;2366;51.332;6.610;2023-04-24T13:41:37;2.10;;;1.33;;
4704;SDS011;2366;51.332;6.610;2023-04-24T13:44:03;4.33;;;1.07;;
4704;SDS011;2366;51.332;6.610;2023-04-24T13:46:29;2.58;;;1.23;;
4704;SDS011;2366;51.332;6.610;2023-04-24T13:48:55;1.00;;;0.90;;
4704;SDS011;2366;51.332;6.610;2023-04-24T13:51:21;1.13;;;1.00;;
4704;SDS011;2366;51.332;6.610;2023-04-24T13:53:47;3.70;;;1.33;;
4704;SDS011;2366;51.332;6.610;2023-04-24T13:56:13;2.00;;;1.43;;
4704;SDS011;2366;51.332;6.610;2023-04-24T13:58:39;1.67;;;1.03;;
4704;SDS011;2366;51.332;6.610;2023-04-24T14:01:04;1.10;;;0.80;;
4704;SDS011;2366;51.332;6.610;2023-04-24T14:03:30;2.20;;;1.03;;
4704;SDS011;2366;51.332;6.610;2023-04-24T14:05:55;2.30;;;1.33;;
4704;SDS011;2366;51.332;6.610;2023-04-24T14:08:21;5.40;;;0.90;;
4704;SDS011;2366;51.332;6.610;2023-04-24T14:10:47;0.80;;;0.80;;
4704;SDS011;2366;51.332;6.610;2023-04-24T14:13:12;3.57;;;1.63;;
4704;SDS011;2366;51.332;6.610;2023-04-24T14:15:38;0.87;;;0.80;;
4704;SDS011;2366;51.332;6.610;2023-04-24T14:18:03;3.03;;;0.87;;
4704;SDS011;2366;51.332;6.610;2023-04-24T14:20:29;0.90;;;0.73;;
4704;SDS011;2366;51.332;6.610;2023-04-24T14:22:54;2.77;;;1.10;;
4704;SDS011;2366;51.332;6.610;2023-04-24T14:25:19;2.43;;;0.87;;
4704;SDS011;2366;51.332;6.610;2023-04-24T14:27:45;1.03;;;0.93;;
4704;SDS011;2366;51.332;6.610;2023-04-24T14:30:12;3.28;;;0.77;;
4704;SDS011;2366;51.332;6.610;2023-04-24T14:32:38;1.87;;;1.37;;
4704;SDS011;2366;51.332;6.610;2023-04-24T14:35:04;9.50;;;1.10;;
4704;SDS011;2366;51.332;6.610;2023-04-24T14:37:31;1.38;;;0.80;;
4704;SDS011;2366;51.332;6.610;2023-04-24T14:39:56;0.73;;;0.73;;
4704;SDS011;2366;51.332;6.610;2023-04-24T14:42:22;1.87;;;1.27;;
4704;SDS011;2366;51.332;6.610;2023-04-24T14:44:47;1.30;;;0.97;;
4704;SDS011;2366;51.332;6.610;2023-04-24T14:47:12;1.20;;;0.83;;
4704;SDS011;2366;51.332;6.610;2023-04-24T14:49:38;4.43;;;1.20;;
4704;SDS011;2366;51.332;6.610;2023-04-24T14:52:03;1.00;;;0.80;;
4704;SDS011;2366;51.332;6.610;2023-04-24T14:54:29;3.80;;;1.53;;
4704;SDS011;2366;51.332;6.610;2023-04-24T14:56:54;2.73;;;1.10;;
4704;SDS011;2366;51.332;6.610;2023-04-24T14:59:21;1.35;;;1.25;;
4704;SDS011;2366;51.332;6.610;2023-04-24T15:01:47;1.40;;;1.30;;
4704;SDS011;2366;51.332;6.610;2023-04-24T15:04:12;3.33;;;1.03;;
4704;SDS011;2366;51.332;6.610;2023-04-24T15:06:38;1.67;;;1.10;;
4704;SDS011;2366;51.332;6.610;2023-04-24T15:09:03;1.43;;;1.33;;
4704;SDS011;2366;51.332;6.610;2023-04-24T15:11:28;1.07;;;0.97;;
4704;SDS011;2366;51.332;6.610;2023-04-24T15:13:55;5.57;;;1.23;;
4704;SDS011;2366;51.332;6.610;2023-04-24T15:16:21;1.90;;;1.20;;